Time;durP1;ratioP1;P1;durP2;ratioP2;P2;SDS_P1;SDS_P2;PMS_P1;PMS_P2;Temp;Humidity;BMP_temperature;BMP_pressure;BME280_temperature;BME280_humidity;BME280_pressure;Samples;Min_cycle;Max_cycle;Signal;HPM_P1;HPM_P2
2022/03/10 07:04:21;;;;;;;11.77;2.22;;;24.10;74.00;;;;;;5646482;22;15755207;-72
2022/03/10 07:07:27;;;;;;;9.18;3.22;;;24.10;73.90;;;;;;6341300;22;20006;-72
2022/03/10 07:10:33;;;;;;;11.70;2.10;;;24.10;73.90;;;;;;6343674;22;19998;-73
2022/03/10 07:13:19;;;;;;;;;;;24.20;73.80;;;;;;6343779;22;20033;-73
2022/03/10 07:16:25;;;;;;;10.57;2.22;;;24.20;74.20;;;;;;6342667;22;19914;-72
2022/03/10 07:19:31;;;;;;;7.25;2.88;;;24.20;73.30;;;;;;6343796;22;20006;-73
2022/03/10 07:22:17;;;;;;;;;;;24.30;73.20;;;;;;6344092;22;20272;-72
2022/03/10 07:25:24;;;;;;;8.52;1.75;;;24.30;73.00;;;;;;6342651;22;19898;-73
2022/03/10 07:28:31;;;;;;;7.95;2.38;;;24.40;72.90;;;;;;6336772;22;19995;-73
2022/03/10 07:31:37;;;;;;;30.58;4.70;;;24.40;72.70;;;;;;6336630;22;20018;-72
2022/03/10 07:34:03;;;;;;;15.27;2.28;;;24.40;72.60;;;;;;6336829;22;19995;-73
2022/03/10 07:36:30;;;;;;;8.40;1.92;;;24.50;72.60;;;;;;6338521;22;20045;-72
2022/03/10 07:38:56;;;;;;;8.00;2.38;;;24.60;72.50;;;;;;6338488;22;20382;-73
2022/03/10 07:41:23;;;;;;;11.07;3.05;;;24.60;72.30;;;;;;6335973;22;20074;-73
2022/03/10 07:43:49;;;;;;;16.00;2.55;;;24.60;72.10;;;;;;6336523;22;19995;-72
2022/03/10 07:46:16;;;;;;;11.18;3.22;;;24.60;71.80;;;;;;6335295;22;20003;-73
2022/03/10 07:48:42;;;;;;;10.55;2.80;;;24.70;71.40;;;;;;6336772;22;20040;-72
2022/03/10 07:51:08;;;;;;;14.27;3.42;;;24.70;71.20;;;;;;6335014;22;20006;-72
2022/03/10 07:53:35;;;;;;;13.43;2.25;;;24.70;71.20;;;;;;6336508;22;20343;-72
2022/03/10 07:56:02;;;;;;;12.18;3.03;;;24.70;71.10;;;;;;6335504;22;20505;-73
2022/03/10 07:58:29;;;;;;;12.05;3.03;;;24.80;71.20;;;;;;6335813;22;20082;-73
2022/03/10 08:00:57;;;;;;;11.18;2.83;;;24.80;71.20;;;;;;6336185;22;20053;-73
2022/03/10 08:04:03;;;;;;;13.45;2.55;;;24.90;71.10;;;;;;6334747;22;20007;-72
2022/03/10 08:07:09;;;;;;;10.80;2.13;;;24.90;70.80;;;;;;6336251;22;20002;-73
2022/03/10 08:09:55;;;;;;;;;;;25.00;70.60;;;;;;6336905;22;20006;-72
2022/03/10 08:13:01;;;;;;;6.72;3.20;;;25.00;70.40;;;;;;6334975;22;19902;-73
2022/03/10 08:28:28;;;;;;;9.77;2.40;;;25.30;69.40;;;;;;6305104;22;20020;-71
2022/03/10 08:30:54;;;;;;;9.10;2.80;;;25.30;69.00;;;;;;6304483;22;19999;-70
2022/03/10 08:33:21;;;;;;;9.43;2.20;;;25.40;68.60;;;;;;6303769;22;20044;-71
2022/03/10 08:35:47;;;;;;;10.73;2.28;;;25.40;68.20;;;;;;6304830;22;20003;-70
2022/03/10 08:38:15;;;;;;;8.55;2.00;;;25.40;67.80;;;;;;6302149;22;20064;-71
2022/03/10 08:40:41;;;;;;;13.15;2.22;;;25.40;67.50;;;;;;6304843;22;20070;-71
2022/03/10 08:43:12;;;;;;;6.43;1.58;;;25.50;67.50;;;;;;6302623;22;20030;-70
2022/03/10 08:45:39;;;;;;;7.32;2.00;;;25.50;67.30;;;;;;6304162;22;20006;-70
2022/03/10 08:48:06;;;;;;;6.47;1.75;;;25.50;67.10;;;;;;6304121;22;20003;-71
2022/03/10 08:50:33;;;;;;;8.93;3.35;;;25.50;66.90;;;;;;6303906;22;20011;-70
2022/03/10 08:52:59;;;;;;;7.35;3.05;;;25.60;66.70;;;;;;6304989;22;19999;-70
2022/03/10 08:55:26;;;;;;;12.35;3.00;;;25.60;66.40;;;;;;6303197;22;20442;-71
2022/03/10 08:57:53;;;;;;;6.57;2.10;;;25.60;66.10;;;;;;6304728;22;20002;-70
2022/03/10 09:00:20;;;;;;;6.75;1.35;;;25.60;65.90;;;;;;6303282;22;20507;-70
2022/03/10 09:02:46;;;;;;;13.05;1.77;;;25.70;65.80;;;;;;6304847;22;19999;-74
2022/03/10 09:05:13;;;;;;;9.57;1.85;;;25.70;65.60;;;;;;6303798;22;20410;-72
2022/03/10 09:07:40;;;;;;;4.25;1.90;;;25.70;65.60;;;;;;6303943;22;19998;-73
2022/03/10 09:10:08;;;;;;;8.57;2.92;;;25.80;65.60;;;;;;6304147;22;20003;-72
2022/03/10 09:12:35;;;;;;;6.93;2.00;;;25.80;65.50;;;;;;6303083;22;20019;-73
2022/03/10 09:15:02;;;;;;;6.43;2.25;;;25.80;65.30;;;;;;6304580;22;20007;-73
2022/03/10 09:17:28;;;;;;;16.42;2.67;;;25.90;65.10;;;;;;6303230;22;20365;-75
2022/03/10 09:19:55;;;;;;;12.25;2.35;;;25.90;65.10;;;;;;6304273;22;20056;-72
2022/03/10 09:22:23;;;;;;;11.25;2.42;;;25.90;65.30;;;;;;6303379;22;20034;-70
2022/03/10 09:24:50;;;;;;;18.40;2.15;;;26.00;65.50;;;;;;6304065;22;20074;-73
2022/03/10 09:27:16;;;;;;;16.73;3.65;;;26.00;65.30;;;;;;6304398;22;19999;-72
2022/03/10 09:29:42;;;;;;;13.75;2.72;;;26.10;65.30;;;;;;6303052;22;20018;-71
2022/03/10 09:32:09;;;;;;;14.25;2.42;;;26.10;65.20;;;;;;6304304;22;20057;-74
2022/03/10 09:34:36;;;;;;;7.80;1.92;;;26.20;65.50;;;;;;6302884;22;20090;-73
2022/03/10 09:37:03;;;;;;;6.03;2.45;;;26.20;65.30;;;;;;6304175;22;20045;-73
2022/03/10 09:39:29;;;;;;;8.57;1.92;;;26.20;65.00;;;;;;6303345;22;20000;-73
2022/03/10 09:41:56;;;;;;;6.03;1.52;;;26.30;65.60;;;;;;6304021;22;19999;-72
2022/03/10 09:44:27;;;;;;;16.17;4.35;;;26.30;64.70;;;;;;6304077;22;19999;-74
2022/03/10 09:46:55;;;;;;;16.10;2.60;;;26.30;64.60;;;;;;6303312;22;19995;-72
2022/03/10 09:49:22;;;;;;;12.13;2.65;;;26.40;64.80;;;;;;6303939;22;20430;-72
2022/03/10 09:51:50;;;;;;;13.40;2.63;;;26.40;64.60;;;;;;6302845;22;20009;-71
2022/03/10 09:54:17;;;;;;;15.43;2.88;;;26.40;64.20;;;;;;6303997;22;20422;-70
2022/03/10 09:56:44;;;;;;;10.07;2.85;;;26.50;64.30;;;;;;6302880;22;20325;-70
2022/03/10 09:59:12;;;;;;;15.05;2.53;;;26.60;64.20;;;;;;6304096;22;20026;-74
2022/03/10 10:01:39;;;;;;;14.13;2.95;;;26.60;64.10;;;;;;6303597;22;20007;-72
2022/03/10 10:04:06;;;;;;;15.68;2.38;;;26.60;63.60;;;;;;6303491;22;19995;-73
2022/03/10 10:06:59;;;;;;;8.82;2.00;;;26.60;63.20;;;;;;6304221;22;20508;-73
2022/03/10 10:09:40;;;;;;;10.23;2.40;;;26.70;63.00;;;;;;6302766;22;20003;-75
2022/03/10 10:12:07;;;;;;;8.05;1.65;;;26.80;62.90;;;;;;6303982;22;20330;-73
2022/03/10 10:14:39;;;;;;;9.80;2.30;;;26.80;62.80;;;;;;6302072;22;20003;-73
2022/03/10 10:17:06;;;;;;;10.70;2.55;;;26.80;62.70;;;;;;6303191;22;20485;-74
2022/03/10 10:19:34;;;;;;;6.07;1.83;;;26.90;62.70;;;;;;6304041;22;20078;-74
2022/03/10 10:22:20;;;;;;;14.25;1.88;;;26.90;62.80;;;;;;6302742;22;20445;-73
2022/03/10 10:24:57;;;;;;;5.35;1.67;;;27.00;62.00;;;;;;6303936;22;20010;-73
2022/03/10 10:27:32;;;;;;;7.78;1.98;;;27.00;61.70;;;;;;6303230;22;20083;-75
2022/03/10 10:30:00;;;;;;;18.85;2.30;;;27.10;61.40;;;;;;6303272;22;20431;-74
2022/03/10 10:32:34;;;;;;;17.65;3.53;;;27.10;61.20;;;;;;6304038;22;20003;-74
2022/03/10 10:35:08;;;;;;;9.57;1.75;;;27.10;61.20;;;;;;6302824;22;20457;-74
2022/03/10 10:37:42;;;;;;;6.43;1.35;;;27.20;61.50;;;;;;6303980;22;20002;-73
2022/03/10 10:40:10;;;;;;;19.48;4.20;;;27.20;61.30;;;;;;6302734;22;20176;-74
2022/03/10 10:42:40;;;;;;;5.97;1.40;;;27.30;60.80;;;;;;6303751;22;20521;-73
2022/03/10 10:45:31;;;;;;;11.25;2.75;;;27.30;60.70;;;;;;6303607;22;20056;-74
2022/03/10 10:48:08;;;;;;;7.55;1.48;;;27.40;60.80;;;;;;6302874;22;20019;-72
2022/03/10 10:50:41;;;;;;;4.07;1.42;;;27.40;61.10;;;;;;6304111;22;20750;-74
2022/03/10 10:53:09;;;;;;;4.47;2.03;;;27.40;60.90;;;;;;6302634;22;20006;-73
2022/03/10 10:55:38;;;;;;;12.57;1.80;;;27.50;60.60;;;;;;6303551;22;20007;-73
2022/03/10 10:58:10;;;;;;;7.72;1.80;;;27.60;61.00;;;;;;6303868;22;20082;-72
2022/03/10 11:00:47;;;;;;;4.72;2.17;;;27.60;61.30;;;;;;6302778;22;20438;-74
2022/03/10 11:03:22;;;;;;;10.00;1.70;;;27.70;60.60;;;;;;6305820;22;20003;-75
2022/03/10 11:05:50;;;;;;;7.38;1.77;;;27.70;60.20;;;;;;6304456;22;20003;-73
2022/03/10 11:08:24;;;;;;;6.78;1.75;;;27.80;60.10;;;;;;6305995;22;20022;-73
2022/03/10 11:10:51;;;;;;;;;;;27.80;59.80;;;;;;6305521;22;20074;-74
2022/03/10 11:13:18;;;;;;;11.15;2.22;;;27.90;59.70;;;;;;6305018;22;19899;-73
2022/03/10 11:15:45;;;;;;;8.95;2.05;;;27.90;59.50;;;;;;6305764;22;20137;-73
2022/03/10 11:18:13;;;;;;;6.95;1.42;;;27.90;59.40;;;;;;6304407;22;20003;-73
2022/03/10 11:20:45;;;;;;;6.20;1.38;;;28.00;59.10;;;;;;6305570;22;20030;-73
2022/03/10 11:23:21;;;;;;;6.97;1.67;;;28.00;59.00;;;;;;6304189;22;19992;-73
2022/03/10 11:25:58;;;;;;;3.67;1.25;;;28.10;58.70;;;;;;6305688;22;20002;-73
2022/03/10 11:28:32;;;;;;;6.10;1.88;;;28.10;58.60;;;;;;6305273;22;20097;-73
2022/03/10 11:31:06;;;;;;;15.00;2.17;;;28.20;58.30;;;;;;6304564;22;20505;-72
2022/03/10 11:33:38;;;;;;;18.50;2.30;;;28.20;58.50;;;;;;6305746;22;20000;-72
2022/03/10 11:36:27;;;;;;;20.60;2.50;;;28.20;59.00;;;;;;6304021;22;20046;-72
2022/03/10 11:38:59;;;;;;;8.80;1.98;;;28.30;58.80;;;;;;6305298;22;20090;-73
2022/03/10 11:41:43;;;;;;;5.95;1.73;;;28.30;58.20;;;;;;6305187;22;20007;-73
2022/03/10 11:44:10;;;;;;;12.45;2.33;;;28.40;57.60;;;;;;6304057;22;20003;-73
2022/03/10 11:46:54;;;;;;;7.90;2.10;;;28.40;57.50;;;;;;6305586;22;20003;-75
2022/03/10 11:49:21;;;;;;;10.60;3.72;;;28.40;57.20;;;;;;6304287;22;20010;-73
2022/03/10 11:52:03;;;;;;;3.35;1.38;;;28.50;57.00;;;;;;6305199;22;20034;-73
2022/03/10 11:54:31;;;;;;;8.20;2.58;;;28.50;56.50;;;;;;6304989;22;20007;-73
2022/03/10 11:57:03;;;;;;;6.82;2.25;;;28.60;56.80;;;;;;6304133;22;20007;-75
2022/03/10 11:59:32;;;;;;;5.07;1.63;;;28.60;55.80;;;;;;6305201;22;20060;-73
2022/03/10 12:02:00;;;;;;;6.55;1.35;;;28.60;55.50;;;;;;6303915;22;20035;-74
2022/03/10 12:04:41;;;;;;;5.45;1.45;;;28.60;55.50;;;;;;6305319;22;20042;-73
2022/03/10 14:40:21;;;;;;;13.48;2.47;;;28.70;57.20;;;;;;4964757;28;3356238;-77
2022/03/10 14:42:48;;;;;;;12.88;2.30;;;28.70;57.00;;;;;;5099569;28;20425;-75
2022/03/10 14:45:14;;;;;;;27.88;7.82;;;28.70;56.50;;;;;;5091379;28;20123;-80
2022/03/10 14:47:41;;;;;;;21.20;9.15;;;28.70;56.40;;;;;;5095379;28;20104;-77
2022/03/10 14:50:07;;;;;;;13.38;4.95;;;28.70;56.60;;;;;;5098483;28;20525;-73
2022/03/10 14:52:34;;;;;;;10.30;3.22;;;28.70;56.50;;;;;;5082837;28;20069;-74
2022/03/10 14:55:00;;;;;;;11.35;2.63;;;28.70;56.20;;;;;;5101736;28;20016;-74
2022/03/10 14:57:28;;;;;;;14.73;2.80;;;28.70;56.30;;;;;;5097960;28;20032;-76
2022/03/10 14:59:56;;;;;;;170.57;15.73;;;28.70;56.60;;;;;;5093914;28;20028;-74
2022/03/10 15:02:22;;;;;;;76.63;10.10;;;28.60;56.10;;;;;;5102852;28;20020;-75
2022/03/10 15:04:49;;;;;;;45.53;5.15;;;28.60;56.60;;;;;;5101144;28;20062;-76
2022/03/10 15:07:15;;;;;;;34.58;4.47;;;28.60;56.80;;;;;;5099397;28;20024;-77
2022/03/10 15:09:43;;;;;;;23.67;6.70;;;28.50;56.80;;;;;;5079588;28;20845;-81
2022/03/10 15:12:09;;;;;;;33.30;7.53;;;28.50;56.30;;;;;;5097919;28;20115;-77
2022/03/10 15:14:36;;;;;;;21.58;4.78;;;28.40;56.40;;;;;;5098692;28;20483;-74
2022/03/10 15:17:02;;;;;;;29.73;5.28;;;28.40;56.50;;;;;;5101287;28;20032;-74
2022/03/10 15:19:29;;;;;;;12.27;4.63;;;28.40;57.00;;;;;;5102205;28;20026;-74
2022/03/10 15:21:55;;;;;;;11.85;3.42;;;28.40;56.60;;;;;;5095811;28;20028;-76
2022/03/10 15:24:22;;;;;;;13.75;3.03;;;28.40;56.00;;;;;;5105684;28;20028;-75
2022/03/10 15:26:49;;;;;;;9.50;3.28;;;28.40;56.00;;;;;;5104358;28;20024;-75
2022/03/10 15:29:15;;;;;;;11.27;3.83;;;28.40;56.20;;;;;;5056200;28;20035;-77
2022/03/10 15:31:43;;;;;;;9.32;3.40;;;28.30;55.70;;;;;;5089802;28;20387;-76
2022/03/10 15:34:09;;;;;;;10.35;3.20;;;28.30;55.70;;;;;;5089837;28;20051;-75
2022/03/10 15:36:36;;;;;;;6.70;2.75;;;28.30;55.70;;;;;;5092302;28;20038;-76
2022/03/10 15:39:02;;;;;;;15.90;3.60;;;28.30;55.90;;;;;;5083709;28;20044;-76
2022/03/10 15:41:29;;;;;;;14.35;4.70;;;28.20;55.70;;;;;;5084217;28;20374;-76
2022/03/10 15:43:56;;;;;;;14.07;3.97;;;28.20;55.90;;;;;;5084452;28;20031;-76
2022/03/10 15:46:23;;;;;;;9.70;3.53;;;28.20;55.90;;;;;;5088116;28;20024;-76
2022/03/10 15:49:32;;;;;;;8.75;2.55;;;28.10;55.80;;;;;;5091876;28;20370;-77
2022/03/10 15:52:38;;;;;;;15.27;3.50;;;28.10;55.80;;;;;;5088196;28;20020;-75
2022/03/10 15:55:44;;;;;;;25.20;3.22;;;28.10;56.00;;;;;;5091569;28;20482;-76
2022/03/10 15:58:11;;;;;;;13.40;2.83;;;28.00;56.00;;;;;;5092140;28;20467;-77
2022/03/10 16:00:37;;;;;;;10.27;2.60;;;28.00;56.00;;;;;;5088660;28;20031;-75
2022/03/10 16:03:04;;;;;;;17.00;3.20;;;27.90;55.90;;;;;;5082559;28;20032;-74
2022/03/10 16:05:30;;;;;;;12.30;2.88;;;27.90;56.10;;;;;;5089698;28;20620;-74
2022/03/10 16:07:57;;;;;;;40.05;6.50;;;27.80;56.20;;;;;;5087123;28;20020;-77
2022/03/10 16:10:27;;;;;;;49.03;8.00;;;27.80;57.20;;;;;;5085598;28;20043;-75
2022/03/10 16:12:53;;;;;;;22.75;7.78;;;27.80;57.80;;;;;;5069708;28;20415;-75
2022/03/10 16:15:20;;;;;;;34.20;7.70;;;27.70;57.40;;;;;;5086542;28;20520;-75
2022/03/10 16:17:47;;;;;;;9.30;5.07;;;27.70;57.00;;;;;;5088419;28;20041;-76
2022/03/10 16:20:15;;;;;;;10.45;4.20;;;27.70;56.90;;;;;;5086123;28;20024;-74
2022/03/10 16:22:42;;;;;;;6.38;2.30;;;27.70;56.80;;;;;;5090783;28;20039;-76
2022/03/10 16:25:12;;;;;;;6.85;2.60;;;27.60;56.70;;;;;;5086183;28;20024;-75
2022/03/10 16:27:43;;;;;;;9.50;3.20;;;27.60;56.80;;;;;;5081728;28;20028;-75
2022/03/10 16:30:10;;;;;;;15.52;2.78;;;27.60;56.90;;;;;;5090436;28;20024;-75
2022/03/10 16:32:39;;;;;;;31.80;4.80;;;27.50;57.20;;;;;;5089860;28;20020;-75
2022/03/10 16:35:06;;;;;;;17.33;2.97;;;27.50;57.60;;;;;;5072002;28;20036;-76
2022/03/10 16:37:33;;;;;;;14.82;5.68;;;27.50;57.70;;;;;;5088828;28;20055;-73
2022/03/10 16:40:09;;;;;;;13.70;3.83;;;27.40;57.80;;;;;;5086399;28;20040;-76
2022/03/10 16:42:35;;;;;;;16.10;2.80;;;27.40;57.90;;;;;;5087419;28;20032;-76
2022/03/10 16:45:02;;;;;;;9.15;2.83;;;27.40;57.90;;;;;;5090934;28;20082;-74
2022/03/10 16:47:28;;;;;;;8.02;2.70;;;27.30;58.10;;;;;;5086295;28;20047;-73
2022/03/10 16:49:55;;;;;;;13.85;2.38;;;27.30;58.10;;;;;;5084886;28;20056;-76
2022/03/10 16:52:22;;;;;;;18.40;3.00;;;27.30;58.20;;;;;;5079534;28;20479;-74
2022/03/10 16:54:48;;;;;;;15.82;3.30;;;27.20;58.50;;;;;;5084753;28;20679;-73
2022/03/10 16:57:15;;;;;;;9.05;3.03;;;27.10;58.20;;;;;;5088823;28;20429;-75
2022/03/10 16:59:41;;;;;;;28.17;4.38;;;27.10;58.10;;;;;;5084007;28;20024;-75
2022/03/10 17:02:08;;;;;;;12.50;2.60;;;27.00;58.10;;;;;;5088189;28;20016;-79
2022/03/10 17:04:38;;;;;;;8.85;2.47;;;27.00;58.20;;;;;;5080981;28;20020;-74
2022/03/10 17:07:07;;;;;;;6.10;1.98;;;27.00;58.20;;;;;;5088488;28;20542;-75
2022/03/10 17:09:34;;;;;;;6.05;1.92;;;26.90;58.20;;;;;;5084385;28;20028;-77
2022/03/10 17:12:01;;;;;;;11.63;2.78;;;26.90;58.40;;;;;;5089173;28;20024;-74
2022/03/10 17:14:27;;;;;;;11.15;2.80;;;26.90;58.70;;;;;;5083601;28;20024;-75
2022/03/10 17:16:54;;;;;;;9.68;2.20;;;26.80;58.80;;;;;;5086335;28;20028;-75
2022/03/10 17:19:21;;;;;;;30.02;4.35;;;26.80;58.70;;;;;;5089705;28;20077;-74
2022/03/10 17:21:48;;;;;;;15.93;2.70;;;26.80;59.00;;;;;;5086821;28;20048;-72
2022/03/10 17:24:15;;;;;;;14.65;3.03;;;26.70;59.10;;;;;;5084106;28;20042;-73
2022/03/10 17:26:41;;;;;;;8.77;2.00;;;26.70;59.00;;;;;;5083187;28;20016;-76
2022/03/10 17:29:08;;;;;;;15.48;3.75;;;26.60;58.90;;;;;;5091866;28;20023;-74
2022/03/10 17:31:34;;;;;;;14.88;2.47;;;26.60;58.80;;;;;;5088970;28;20020;-74
2022/03/10 17:34:04;;;;;;;13.10;2.50;;;26.60;59.30;;;;;;5083427;28;20021;-77
2022/03/10 17:36:30;;;;;;;6.20;1.80;;;26.60;58.60;;;;;;5087416;28;20490;-73
2022/03/10 17:38:57;;;;;;;6.88;2.30;;;26.60;58.60;;;;;;5061182;28;20407;-72
2022/03/10 17:41:23;;;;;;;7.35;1.70;;;26.50;58.40;;;;;;5067077;28;20028;-74
2022/03/10 17:43:50;;;;;;;4.30;1.55;;;26.50;58.50;;;;;;5058669;28;20029;-74
2022/03/10 17:46:18;;;;;;;4.70;1.67;;;26.50;58.50;;;;;;5066463;28;20020;-74
2022/03/10 17:48:44;;;;;;;6.03;2.60;;;26.50;58.50;;;;;;5068425;28;20115;-73
2022/03/10 17:51:13;;;;;;;8.32;1.88;;;26.50;58.60;;;;;;5072508;28;20024;-75
2022/03/10 17:53:40;;;;;;;9.40;2.47;;;26.40;58.60;;;;;;5058783;28;20226;-73
2022/03/10 17:56:33;;;;;;;9.85;3.28;;;26.40;58.60;;;;;;5069736;28;20097;-76
2022/03/10 17:59:09;;;;;;;24.25;4.07;;;26.40;58.70;;;;;;5065765;28;20021;-76
2022/03/10 18:01:35;;;;;;;15.35;2.72;;;26.40;58.90;;;;;;5066368;28;20379;-76
2022/03/10 18:04:02;;;;;;;10.73;2.15;;;26.30;58.90;;;;;;5064512;28;20025;-74
2022/03/10 18:06:28;;;;;;;9.30;1.88;;;26.30;58.90;;;;;;5067289;28;20025;-74
2022/03/10 18:08:56;;;;;;;10.30;2.40;;;26.20;58.90;;;;;;5057727;28;20129;-74
2022/03/10 18:11:22;;;;;;;5.40;1.92;;;26.20;59.00;;;;;;5058825;28;20044;-75
2022/03/10 18:13:49;;;;;;;7.18;2.00;;;26.20;59.00;;;;;;5069143;28;20013;-75
2022/03/10 18:16:15;;;;;;;20.25;3.00;;;26.20;59.20;;;;;;5058174;28;20036;-74
2022/03/10 18:18:59;;;;;;;16.20;2.45;;;26.10;59.30;;;;;;5064107;28;20035;-74
2022/03/10 18:21:25;;;;;;;10.18;3.13;;;26.20;59.50;;;;;;5068038;28;20028;-75
2022/03/10 18:23:57;;;;;;;5.18;2.65;;;26.10;59.40;;;;;;5066632;28;20032;-74
2022/03/10 18:26:23;;;;;;;2.50;1.60;;;26.10;59.50;;;;;;5067869;28;20074;-75
2022/03/10 18:28:49;;;;;;;7.05;1.90;;;26.00;59.50;;;;;;5063102;28;20035;-75
2022/03/10 18:31:16;;;;;;;12.98;3.25;;;26.00;59.60;;;;;;5061505;28;20025;-76
2022/03/10 18:33:43;;;;;;;18.33;3.85;;;26.00;59.60;;;;;;5064687;28;20510;-74
2022/03/10 18:36:18;;;;;;;11.30;2.97;;;26.00;59.70;;;;;;5067691;28;20063;-75
2022/03/10 18:38:45;;;;;;;8.02;3.05;;;25.90;59.80;;;;;;5066051;28;20116;-74
2022/03/10 18:41:12;;;;;;;7.28;2.55;;;25.90;59.90;;;;;;5081159;28;20105;-75
2022/03/10 18:43:39;;;;;;;11.57;2.65;;;25.90;59.90;;;;;;5076952;28;20031;-80
2022/03/10 18:46:09;;;;;;;12.93;3.40;;;25.90;60.00;;;;;;5089070;28;20015;-76
2022/03/10 18:48:37;;;;;;;17.88;5.28;;;25.80;60.10;;;;;;5082747;28;20040;-77
2022/03/10 18:51:03;;;;;;;21.50;9.02;;;25.80;60.30;;;;;;5080929;28;20493;-77
2022/03/10 18:53:30;;;;;;;22.85;10.55;;;25.80;60.50;;;;;;5075333;28;20017;-75
2022/03/10 18:55:56;;;;;;;29.80;8.80;;;25.80;60.50;;;;;;5078062;28;20040;-78
2022/03/10 18:58:23;;;;;;;16.83;5.13;;;25.80;60.80;;;;;;5085399;28;20451;-78
2022/03/10 19:00:49;;;;;;;9.02;3.72;;;25.80;61.10;;;;;;5085974;28;20016;-79
2022/03/10 19:03:16;;;;;;;17.67;4.70;;;25.80;61.20;;;;;;5089731;28;20028;-79
2022/03/10 19:05:42;;;;;;;12.98;3.25;;;25.80;61.30;;;;;;5088576;28;20035;-77
2022/03/10 19:08:09;;;;;;;14.90;4.65;;;25.70;61.30;;;;;;5085721;28;20089;-80
2022/03/10 19:10:36;;;;;;;15.88;4.75;;;25.70;61.30;;;;;;5088598;28;20027;-80
2022/03/10 19:13:06;;;;;;;19.55;4.28;;;25.70;61.20;;;;;;5074253;28;20479;-79
2022/03/10 19:15:33;;;;;;;9.82;3.38;;;25.70;61.30;;;;;;5086858;28;20024;-80
2022/03/10 19:18:00;;;;;;;7.38;2.25;;;25.60;61.40;;;;;;5088489;28;20039;-77
2022/03/10 19:20:27;;;;;;;7.70;3.58;;;25.60;61.40;;;;;;5092439;28;20664;-80
2022/03/10 19:22:53;;;;;;;10.32;3.25;;;25.60;61.60;;;;;;5073489;28;20119;-78
2022/03/10 19:25:22;;;;;;;8.70;2.67;;;25.60;61.70;;;;;;5084425;28;20020;-78
2022/03/10 19:27:50;;;;;;;19.88;4.45;;;25.60;61.80;;;;;;5083637;28;20017;-78
2022/03/10 19:30:17;;;;;;;24.98;4.13;;;25.60;61.90;;;;;;5088300;28;20551;-76
2022/03/10 19:32:45;;;;;;;27.13;9.15;;;25.60;62.00;;;;;;5091034;28;20024;-77
2022/03/10 19:35:11;;;;;;;35.10;12.27;;;25.50;62.10;;;;;;5090525;28;20122;-77
2022/03/10 19:37:39;;;;;;;20.02;7.45;;;25.50;62.00;;;;;;5090150;28;20028;-79
2022/03/10 19:40:07;;;;;;;17.75;5.00;;;25.50;62.10;;;;;;5089919;28;20036;-78
2022/03/10 19:42:36;;;;;;;13.38;3.83;;;25.50;62.20;;;;;;5087697;28;20081;-79
2022/03/10 19:45:04;;;;;;;9.18;3.83;;;25.50;62.20;;;;;;5092575;28;20017;-76
2022/03/10 19:47:36;;;;;;;8.10;3.17;;;25.50;62.30;;;;;;5086665;28;20044;-77
2022/03/10 19:50:04;;;;;;;11.02;3.33;;;25.40;62.20;;;;;;5087393;28;20033;-77
2022/03/10 19:52:31;;;;;;;16.02;4.75;;;25.40;62.20;;;;;;5086867;28;20028;-78
2022/03/10 19:54:58;;;;;;;12.27;3.28;;;25.40;62.20;;;;;;5088974;28;20496;-77
2022/03/10 19:57:25;;;;;;;11.77;3.15;;;25.40;62.30;;;;;;5085350;28;20115;-77
2022/03/10 19:59:52;;;;;;;17.65;4.47;;;25.40;62.30;;;;;;5067091;28;20053;-76
2022/03/10 20:02:18;;;;;;;27.40;11.45;;;25.40;62.40;;;;;;5087366;28;20016;-75
2022/03/10 22:48:57;;;;;;;8.75;3.22;;;24.30;65.50;;;;;;4984018;27;4945373;-70
2022/03/10 22:54:14;;;;;;;10.00;3.15;;;24.30;65.50;;;;;;5156419;27;20041;-70
2022/03/10 22:56:41;;;;;;;12.40;2.95;;;24.40;65.50;;;;;;5152831;27;20070;-71
2022/03/10 22:59:08;;;;;;;11.32;3.75;;;24.30;65.50;;;;;;5155774;27;20117;-71
2022/03/10 23:01:35;;;;;;;10.65;3.47;;;24.30;65.50;;;;;;5155391;27;20070;-70
2022/03/10 23:09:37;;;;;;;8.15;3.10;;;24.30;65.80;;;;;;5154731;27;20091;-70
2022/03/10 23:12:08;;;;;;;9.25;3.10;;;24.30;65.80;;;;;;5150309;27;20475;-71
2022/03/10 23:14:35;;;;;;;9.27;2.33;;;24.30;65.80;;;;;;5153552;27;20027;-70
2022/03/10 23:17:03;;;;;;;7.45;2.42;;;24.30;65.80;;;;;;5156153;27;20011;-70
2022/03/10 23:19:34;;;;;;;9.75;2.90;;;24.30;66.50;;;;;;5150091;27;20371;-70
2022/03/10 23:22:06;;;;;;;9.32;2.67;;;24.30;65.90;;;;;;5150579;27;20377;-70
2022/03/10 23:24:33;;;;;;;9.70;3.33;;;24.30;65.90;;;;;;5151379;27;20063;-71
2022/03/10 23:27:00;;;;;;;8.32;2.80;;;24.30;65.90;;;;;;5148981;27;20012;-70
2022/03/10 23:29:26;;;;;;;9.43;2.55;;;24.30;65.90;;;;;;5135665;27;20545;-71
2022/03/10 23:31:53;;;;;;;8.82;2.72;;;24.30;65.90;;;;;;5139125;27;20393;-70
2022/03/10 23:34:20;;;;;;;23.27;3.90;;;24.30;66.20;;;;;;5139647;27;20034;-70
2022/03/10 23:36:46;;;;;;;11.10;3.38;;;24.20;66.60;;;;;;5139649;27;20027;-70
2022/03/10 23:39:13;;;;;;;11.00;3.10;;;24.20;66.60;;;;;;5142203;27;20019;-71
2022/03/10 23:41:39;;;;;;;10.13;3.08;;;24.20;66.60;;;;;;5138229;27;20023;-70
2022/03/10 23:44:06;;;;;;;9.60;3.72;;;24.20;66.50;;;;;;5142496;27;20027;-69
2022/03/10 23:46:32;;;;;;;13.18;3.33;;;24.20;66.40;;;;;;5137525;27;20141;-70
2022/03/10 23:48:59;;;;;;;11.43;2.65;;;24.20;66.40;;;;;;5140897;27;20050;-71
2022/03/10 23:51:28;;;;;;;9.30;3.30;;;24.10;66.40;;;;;;5137468;27;20020;-70
2022/03/10 23:53:55;;;;;;;7.38;3.28;;;24.10;66.30;;;;;;5137965;27;20023;-70
2022/03/10 23:56:21;;;;;;;11.73;4.45;;;24.10;66.30;;;;;;5136933;27;20477;-70
2022/03/10 23:58:47;;;;;;;8.45;2.70;;;24.10;66.30;;;;;;5140448;27;20057;-70
